createdAt,value
2022-11-20T00:01:15.388Z,32.60
2022-11-20T00:03:42.568Z,29.52
2022-11-20T00:06:12.376Z,30.27
2022-11-20T00:08:39.238Z,33.15
2022-11-20T00:11:16.815Z,28.95
2022-11-20T00:13:50.498Z,29.85
2022-11-20T00:16:20.118Z,30.98
2022-11-20T00:18:47.394Z,31.00
2022-11-20T00:21:17.479Z,31.30
2022-11-20T00:23:44.357Z,29.50
2022-11-20T00:26:13.695Z,30.35
2022-11-20T00:28:40.809Z,32.58
2022-11-20T00:31:10.408Z,29.73
2022-11-20T00:33:37.125Z,31.10
2022-11-20T00:36:06.744Z,31.33
2022-11-20T00:38:33.965Z,29.33
2022-11-20T00:41:02.456Z,30.67
2022-11-20T00:43:29.316Z,29.60
2022-11-20T00:46:04.409Z,31.92
2022-11-20T00:48:31.513Z,33.92
2022-11-20T00:50:58.806Z,29.05
2022-11-20T00:53:25.968Z,28.33
2022-11-20T00:56:04.270Z,28.98
2022-11-20T00:58:36.422Z,28.52
2022-11-20T01:01:09.055Z,28.90
2022-11-20T01:03:37.752Z,31.15
2022-11-20T01:06:10.665Z,31.48
2022-11-20T01:08:38.045Z,30.52
2022-11-20T01:11:10.502Z,30.35
2022-11-20T01:13:38.716Z,32.42
2022-11-20T01:16:05.395Z,31.08
2022-11-20T01:18:32.779Z,31.90
2022-11-20T01:21:08.331Z,31.85
2022-11-20T01:23:36.481Z,32.25
2022-11-20T01:26:05.413Z,32.85
2022-11-20T01:28:32.406Z,33.22
2022-11-20T01:30:59.670Z,33.47
2022-11-20T01:33:26.747Z,37.13
2022-11-20T01:35:53.847Z,32.78
2022-11-20T01:38:21.465Z,34.55
2022-11-20T01:40:55.448Z,34.28
2022-11-20T01:43:22.363Z,34.35
2022-11-20T01:45:58.165Z,35.53
2022-11-20T01:48:29.384Z,38.15
2022-11-20T01:50:56.738Z,38.40
2022-11-20T01:53:29.094Z,35.72
2022-11-20T01:55:59.201Z,35.55
2022-11-20T01:58:31.270Z,40.22
2022-11-20T02:00:57.923Z,35.60
2022-11-20T02:03:24.974Z,40.25
2022-11-20T02:05:58.907Z,36.75
2022-11-20T02:08:25.550Z,37.13
2022-11-20T02:10:52.129Z,36.38
2022-11-20T02:13:37.333Z,39.40
2022-11-20T02:16:04.903Z,37.70
2022-11-20T02:18:31.840Z,37.25
2022-11-20T02:21:21.558Z,36.58
2022-11-20T02:24:10.219Z,39.10
2022-11-20T02:26:50.609Z,38.97
2022-11-20T02:29:24.214Z,39.50
2022-11-20T02:31:51.476Z,35.33
2022-11-20T02:34:18.001Z,34.80
2022-11-20T02:36:46.072Z,38.78
2022-11-20T02:39:14.343Z,35.72
2022-11-20T02:41:40.966Z,36.00
2022-11-20T02:44:07.611Z,36.80
2022-11-20T02:46:34.681Z,39.45
2022-11-20T02:49:03.473Z,36.05
2022-11-20T02:51:30.404Z,35.60
2022-11-20T02:53:57.066Z,34.35
2022-11-20T02:56:24.116Z,35.80
2022-11-20T02:58:50.963Z,39.42
2022-11-20T03:01:17.626Z,36.78
2022-11-20T03:03:44.245Z,33.58
2022-11-20T03:06:10.809Z,37.00
2022-11-20T03:08:37.372Z,36.05
2022-11-20T03:11:08.279Z,36.95
2022-11-20T03:13:35.450Z,35.90
2022-11-20T03:16:13.982Z,36.58
2022-11-20T03:18:41.730Z,37.42
2022-11-20T03:21:09.031Z,37.30
2022-11-20T03:23:36.371Z,36.25
2022-11-20T03:26:29.367Z,38.60
2022-11-20T03:28:58.409Z,39.72
2022-11-20T03:31:27.267Z,40.00
2022-11-20T03:33:54.242Z,40.97
2022-11-20T03:36:21.932Z,42.42
2022-11-20T03:38:49.331Z,38.40
2022-11-20T03:41:19.207Z,40.45
2022-11-20T03:43:53.358Z,42.10
2022-11-20T03:46:20.782Z,43.50
2022-11-20T03:48:51.553Z,42.60
2022-11-20T03:51:22.783Z,41.28
2022-11-20T03:53:52.245Z,43.72
2022-11-20T03:56:21.384Z,39.58
2022-11-20T03:58:48.007Z,41.00
2022-11-20T04:01:17.538Z,42.85
2022-11-20T04:03:45.296Z,45.97
2022-11-20T04:06:20.560Z,42.90
2022-11-20T04:08:52.367Z,43.63
2022-11-20T04:11:27.884Z,42.53
2022-11-20T04:14:02.711Z,43.58
2022-11-20T04:16:37.203Z,41.58
2022-11-20T04:19:07.169Z,41.40
2022-11-20T04:21:34.058Z,42.78
2022-11-20T04:24:00.693Z,37.20
2022-11-20T04:26:28.927Z,39.47
2022-11-20T04:28:56.058Z,36.45
2022-11-20T04:31:29.154Z,41.47
2022-11-20T04:33:55.845Z,42.85
2022-11-20T04:36:24.745Z,41.47
2022-11-20T04:38:56.868Z,42.47
2022-11-20T04:41:29.057Z,42.63
2022-11-20T04:44:00.734Z,39.60
2022-11-20T04:46:28.234Z,41.72
2022-11-20T04:48:55.519Z,38.70
2022-11-20T04:51:22.646Z,40.55
2022-11-20T04:53:49.302Z,40.78
2022-11-20T04:56:16.230Z,39.85
2022-11-20T04:58:43.117Z,41.15
2022-11-20T05:01:15.448Z,39.60
2022-11-20T05:03:43.154Z,36.22
2022-11-20T05:06:11.785Z,40.88
2022-11-20T05:08:38.422Z,39.25
2022-11-20T05:11:07.551Z,37.65
2022-11-20T05:13:34.153Z,46.63
2022-11-20T05:16:13.152Z,37.08
2022-11-20T05:18:41.107Z,40.63
2022-11-20T05:21:09.248Z,43.05
2022-11-20T05:23:36.900Z,40.03
2022-11-20T05:26:04.639Z,41.58
2022-11-20T05:28:31.922Z,40.45
2022-11-20T05:31:09.052Z,40.38
2022-11-20T05:33:36.566Z,38.28
2022-11-20T05:36:06.295Z,41.55
2022-11-20T05:38:33.192Z,39.80
2022-11-20T05:41:17.149Z,38.92
2022-11-20T05:43:45.811Z,39.90
2022-11-20T05:46:15.101Z,37.20
2022-11-20T05:48:43.530Z,36.30
2022-11-20T05:51:13.606Z,36.40
2022-11-20T05:53:43.851Z,35.50
2022-11-20T05:56:17.574Z,38.42
2022-11-20T05:58:44.726Z,37.78
2022-11-20T06:01:14.446Z,38.00
2022-11-20T06:03:43.298Z,39.30
2022-11-20T06:06:09.818Z,39.05
2022-11-20T06:08:36.300Z,39.47
2022-11-20T06:11:07.633Z,41.03
2022-11-20T06:13:39.184Z,44.90
2022-11-20T06:16:08.595Z,45.28
2022-11-20T06:18:35.229Z,42.67
2022-11-20T06:21:07.883Z,44.72
2022-11-20T06:23:35.493Z,45.17
2022-11-20T06:26:07.328Z,45.13
2022-11-20T06:28:34.182Z,47.13
2022-11-20T06:31:00.695Z,49.28
2022-11-20T06:33:27.951Z,50.80
2022-11-20T06:36:00.881Z,51.60
2022-11-20T06:38:28.910Z,49.47
2022-11-20T06:40:55.524Z,51.13
2022-11-20T06:43:22.905Z,48.78
2022-11-20T06:45:57.390Z,54.22
2022-11-20T06:48:25.006Z,53.83
2022-11-20T06:50:51.707Z,56.55
2022-11-20T06:53:18.312Z,59.47
2022-11-20T06:55:46.417Z,58.55
2022-11-20T06:58:14.057Z,65.60
2022-11-20T07:00:40.871Z,65.35
2022-11-20T07:03:09.719Z,60.83
2022-11-20T07:05:36.833Z,62.60
2022-11-20T07:08:04.388Z,63.85
2022-11-20T07:10:31.360Z,65.85
2022-11-20T07:12:58.198Z,54.78
2022-11-20T07:15:26.479Z,62.53
2022-11-20T07:17:53.413Z,59.42
2022-11-20T07:20:20.190Z,57.90
2022-11-20T07:22:46.700Z,59.92
2022-11-20T07:25:13.312Z,62.38
2022-11-20T07:27:40.099Z,71.97
2022-11-20T07:30:07.794Z,64.38
2022-11-20T07:32:34.376Z,59.13
2022-11-20T07:35:00.949Z,65.10
2022-11-20T07:37:27.504Z,59.33
2022-11-20T07:39:54.020Z,60.70
2022-11-20T07:42:20.647Z,55.75
2022-11-20T07:44:47.179Z,67.05
2022-11-20T07:47:13.772Z,62.75
2022-11-20T07:49:40.420Z,61.17
2022-11-20T07:52:07.034Z,61.97
2022-11-20T07:54:33.556Z,63.03
2022-11-20T07:57:00.154Z,68.80
2022-11-20T07:59:26.727Z,66.22
2022-11-20T08:01:53.337Z,83.30
2022-11-20T08:04:19.935Z,79.47
2022-11-20T08:06:46.548Z,77.88
2022-11-20T08:09:13.218Z,74.63
2022-11-20T08:11:58.426Z,77.15
2022-11-20T08:14:25.046Z,76.07
2022-11-20T08:16:51.620Z,78.00
2022-11-20T08:19:19.332Z,82.15
2022-11-20T08:21:46.154Z,78.95
2022-11-20T08:24:13.100Z,78.15
2022-11-20T08:26:41.008Z,81.20
2022-11-20T08:29:13.131Z,81.22
2022-11-20T08:31:39.790Z,80.95
2022-11-20T08:34:09.225Z,88.45
2022-11-20T08:36:36.915Z,78.18
2022-11-20T08:39:04.373Z,87.28
2022-11-20T08:41:33.806Z,79.15
2022-11-20T08:44:02.868Z,83.45
2022-11-20T08:46:36.458Z,79.05
2022-11-20T08:49:03.488Z,84.28
2022-11-20T08:51:30.360Z,90.78
2022-11-20T08:53:57.230Z,85.57
2022-11-20T08:56:24.157Z,74.38
2022-11-20T08:59:20.179Z,79.88
2022-11-20T09:01:41.765Z,84.38
2022-11-20T09:04:08.337Z,85.20
2022-11-20T09:06:34.876Z,79.18
2022-11-20T09:09:06.368Z,83.63
2022-11-20T09:11:33.654Z,77.85
2022-11-20T09:14:01.073Z,79.35
2022-11-20T09:16:27.647Z,70.07
2022-11-20T09:19:13.516Z,73.40
2022-11-20T09:21:40.992Z,63.78
2022-11-20T09:24:07.737Z,68.20
2022-11-20T09:26:34.273Z,71.90
2022-11-20T09:29:00.836Z,77.47
2022-11-20T09:31:27.526Z,76.82
2022-11-20T09:33:54.382Z,71.40
2022-11-20T09:36:21.034Z,68.43
2022-11-20T09:38:48.936Z,73.68
2022-11-20T09:41:24.422Z,64.95
2022-11-20T09:44:17.225Z,65.35
2022-11-20T09:46:50.108Z,67.43
2022-11-20T09:49:37.867Z,68.57
2022-11-20T09:52:29.701Z,63.33
2022-11-20T09:54:56.330Z,65.60
2022-11-20T09:57:30.752Z,59.60
2022-11-20T10:00:01.837Z,57.40
2022-11-20T10:02:44.794Z,54.65
2022-11-20T10:05:40.721Z,53.38
2022-11-20T10:08:51.315Z,56.38
2022-11-20T10:11:39.525Z,59.30
2022-11-20T10:14:14.848Z,58.33
2022-11-20T10:16:53.360Z,58.92
2022-11-20T10:19:48.191Z,62.65
2022-11-20T10:22:26.678Z,63.15
2022-11-20T10:25:02.241Z,61.50
2022-11-20T10:27:47.238Z,66.18
2022-11-20T10:30:16.728Z,61.20
2022-11-20T10:32:59.541Z,63.25
2022-11-20T10:35:42.765Z,58.00
2022-11-20T10:38:38.481Z,54.97
2022-11-20T10:41:25.477Z,54.97
2022-11-20T10:44:03.666Z,62.28
2022-11-20T10:46:38.612Z,63.17
2022-11-20T10:49:12.559Z,70.10
2022-11-20T10:51:52.400Z,65.47
2022-11-20T10:54:28.483Z,61.90
2022-11-20T10:57:04.985Z,62.70
2022-11-20T11:00:10.746Z,64.57
2022-11-20T11:02:44.177Z,59.53
2022-11-20T11:05:30.874Z,63.50
2022-11-20T11:07:59.652Z,62.22
2022-11-20T11:10:53.949Z,60.97
2022-11-20T11:13:21.752Z,61.38
2022-11-20T11:15:48.779Z,65.15
2022-11-20T11:18:26.086Z,60.05
2022-11-20T11:20:53.501Z,65.55
2022-11-20T11:23:32.624Z,64.57
2022-11-20T11:26:01.271Z,62.78
2022-11-20T11:28:28.970Z,69.45
2022-11-20T11:30:56.827Z,66.55
2022-11-20T11:33:31.874Z,65.72
2022-11-20T11:36:01.801Z,65.22
2022-11-20T11:38:32.416Z,69.72
2022-11-20T11:40:59.461Z,62.10
2022-11-20T11:43:48.349Z,68.88
2022-11-20T11:46:34.735Z,68.25
2022-11-20T11:49:10.293Z,71.32
2022-11-20T11:52:14.896Z,69.55
2022-11-20T11:54:48.352Z,61.88
2022-11-20T11:57:35.025Z,65.18
2022-11-20T12:00:18.185Z,62.67
2022-11-20T12:02:48.859Z,67.63
2022-11-20T12:08:15.443Z,65.53
2022-11-20T12:10:57.118Z,67.55
2022-11-20T12:13:45.043Z,63.72
2022-11-20T12:16:17.197Z,56.25
2022-11-20T12:18:43.956Z,55.00
2022-11-20T12:21:23.128Z,51.75
2022-11-20T12:24:16.135Z,53.63
2022-11-20T12:26:54.806Z,53.15
2022-11-20T12:30:00.970Z,48.15
2022-11-20T12:32:51.581Z,46.03
2022-11-20T12:35:33.031Z,50.38
2022-11-20T12:38:43.523Z,49.05
2022-11-20T12:41:39.099Z,47.33
2022-11-20T12:45:00.660Z,48.90
2022-11-20T12:47:52.922Z,50.17
2022-11-20T12:51:00.257Z,51.42
2022-11-20T12:53:39.709Z,52.75
2022-11-20T12:56:51.309Z,47.70
2022-11-20T12:59:35.920Z,53.63
2022-11-20T13:02:39.782Z,49.25
2022-11-20T13:05:06.335Z,49.63
2022-11-20T13:07:36.315Z,50.03
2022-11-20T13:10:08.741Z,48.33
2022-11-20T13:12:47.706Z,51.72
2022-11-20T13:15:39.258Z,53.17
2022-11-20T13:18:11.633Z,52.40
2022-11-20T13:20:44.027Z,52.00
2022-11-20T13:23:10.954Z,48.55
2022-11-20T13:25:41.326Z,54.60
2022-11-20T13:28:11.064Z,54.63
2022-11-20T13:30:49.720Z,48.10
2022-11-20T13:33:45.804Z,53.65
2022-11-20T13:36:25.653Z,52.90
2022-11-20T13:38:54.399Z,51.07
2022-11-20T13:41:38.959Z,47.63
2022-11-20T13:44:11.991Z,45.67
2022-11-20T13:46:45.611Z,47.85
2022-11-20T13:49:27.007Z,42.28
2022-11-20T13:52:06.888Z,44.50
2022-11-20T13:54:39.140Z,43.97
2022-11-20T13:57:52.985Z,47.17
2022-11-20T14:00:25.641Z,42.92
2022-11-20T14:03:06.165Z,40.78
2022-11-20T14:05:37.257Z,45.35
2022-11-20T14:08:13.673Z,42.58
2022-11-20T14:10:40.583Z,40.70
2022-11-20T14:13:19.891Z,41.30
2022-11-20T14:15:46.652Z,41.28
2022-11-20T14:18:22.989Z,39.03
2022-11-20T14:20:49.946Z,40.78
2022-11-20T14:23:30.161Z,42.75
2022-11-20T14:25:57.152Z,39.30
2022-11-20T14:28:31.831Z,40.65
2022-11-20T14:30:59.188Z,38.80
2022-11-20T14:33:28.108Z,39.85
2022-11-20T14:35:56.911Z,39.00
2022-11-20T14:38:28.036Z,39.67
2022-11-20T14:40:54.662Z,37.53
2022-11-20T14:43:28.802Z,36.95
2022-11-20T14:46:04.410Z,36.38
2022-11-20T14:48:53.196Z,36.38
2022-11-20T14:51:35.805Z,37.13
2022-11-20T14:54:15.125Z,37.88
2022-11-20T14:56:42.326Z,35.90
2022-11-20T14:59:10.665Z,37.95
2022-11-20T15:01:38.395Z,38.13
2022-11-20T15:04:12.144Z,33.17
2022-11-20T15:06:51.506Z,37.65
2022-11-20T15:09:18.094Z,41.08
2022-11-20T15:12:02.460Z,37.60
2022-11-20T15:14:31.485Z,39.20
2022-11-20T15:16:58.185Z,40.05
2022-11-20T15:19:26.635Z,36.03
2022-11-20T15:21:53.916Z,34.80
2022-11-20T15:24:21.746Z,35.05
2022-11-20T15:26:48.873Z,34.30
2022-11-20T15:29:22.068Z,32.70
2022-11-20T15:31:48.828Z,32.42
2022-11-20T15:34:16.656Z,31.85
2022-11-20T15:36:44.750Z,35.80
2022-11-20T15:39:12.700Z,32.92
2022-11-20T15:41:39.784Z,32.03
2022-11-20T15:44:06.744Z,33.50
2022-11-20T15:46:39.574Z,31.63
2022-11-20T15:49:10.015Z,36.55
2022-11-20T15:51:39.587Z,34.45
2022-11-20T15:54:14.313Z,38.70
2022-11-20T15:56:41.024Z,31.70
2022-11-20T15:59:08.019Z,33.47
2022-11-20T16:01:35.199Z,28.00
2022-11-20T16:04:02.239Z,28.13
2022-11-20T16:06:28.860Z,29.52
2022-11-20T16:08:55.563Z,28.88
2022-11-20T16:11:22.331Z,32.60
2022-11-20T16:14:07.160Z,30.95
2022-11-20T16:16:38.688Z,32.10
2022-11-20T16:19:05.420Z,29.90
2022-11-20T16:21:32.619Z,31.05
2022-11-20T16:24:07.033Z,33.83
2022-11-20T16:26:34.272Z,34.20
2022-11-20T16:29:02.194Z,34.22
2022-11-20T16:31:29.238Z,32.03
2022-11-20T16:33:58.079Z,36.33
2022-11-20T16:36:26.624Z,36.67
2022-11-20T16:39:01.002Z,36.25
2022-11-20T16:41:30.706Z,39.90
2022-11-20T16:43:59.500Z,36.22
2022-11-20T16:46:28.255Z,39.17
2022-11-20T16:48:57.655Z,36.70
2022-11-20T16:51:25.346Z,36.15
2022-11-20T16:53:53.300Z,37.72
2022-11-20T16:56:21.935Z,48.17
2022-11-20T16:58:50.987Z,37.95
2022-11-20T17:01:21.409Z,35.88
2022-11-20T17:03:55.498Z,40.22
2022-11-20T17:06:26.870Z,37.03
2022-11-20T17:08:55.329Z,40.88
2022-11-20T17:11:22.207Z,41.80
2022-11-20T17:13:49.161Z,36.55
2022-11-20T17:16:21.273Z,39.33
2022-11-20T17:18:50.000Z,40.90
2022-11-20T17:21:18.496Z,36.30
2022-11-20T17:23:46.262Z,42.22
2022-11-20T17:26:19.813Z,39.35
2022-11-20T17:28:47.924Z,44.03
2022-11-20T17:31:17.447Z,38.58
2022-11-20T17:33:45.590Z,41.95
2022-11-20T17:36:15.265Z,37.42
2022-11-20T17:38:42.547Z,39.33
2022-11-20T17:41:11.575Z,39.75
2022-11-20T17:43:38.657Z,41.85
2022-11-20T17:46:06.957Z,39.83
2022-11-20T17:48:34.416Z,39.58
2022-11-20T17:51:02.565Z,36.95
2022-11-20T17:53:32.937Z,39.90
2022-11-20T17:56:17.968Z,35.22
2022-11-20T17:58:44.816Z,39.83
2022-11-20T18:01:11.754Z,35.83
2022-11-20T18:03:38.465Z,38.40
2022-11-20T18:06:10.648Z,35.05
2022-11-20T18:08:37.572Z,34.75
2022-11-20T18:11:15.740Z,34.60
2022-11-20T18:14:02.432Z,35.00
2022-11-20T18:16:31.541Z,35.08
2022-11-20T18:18:58.632Z,35.72
2022-11-20T18:21:27.215Z,34.72
2022-11-20T18:23:55.999Z,29.98
2022-11-20T18:26:23.630Z,28.92
2022-11-20T18:28:50.444Z,30.58
2022-11-20T18:31:17.456Z,27.13
2022-11-20T18:33:44.212Z,28.75
2022-11-20T18:36:15.432Z,27.73
2022-11-20T18:38:46.220Z,26.15
2022-11-20T18:41:33.590Z,26.77
2022-11-20T18:44:24.709Z,27.90
2022-11-20T18:46:51.363Z,28.63
2022-11-20T18:49:18.352Z,24.92
2022-11-20T18:51:44.918Z,26.88
2022-11-20T18:54:12.967Z,20.83
2022-11-20T18:56:39.981Z,20.90
2022-11-20T18:59:09.489Z,23.65
2022-11-20T19:01:36.890Z,20.27
2022-11-20T19:04:08.290Z,18.52
2022-11-20T19:06:36.820Z,21.92
2022-11-20T19:09:10.398Z,18.08
2022-11-20T19:11:37.956Z,15.05
2022-11-20T19:14:05.190Z,15.75
2022-11-20T19:16:31.775Z,14.80
2022-11-20T19:19:03.529Z,15.18
2022-11-20T19:21:30.905Z,15.45
2022-11-20T19:23:59.726Z,11.20
2022-11-20T19:26:26.875Z,7.60
2022-11-20T19:28:53.934Z,9.15
2022-11-20T19:31:24.845Z,11.77
2022-11-20T19:33:59.813Z,11.50
2022-11-20T19:36:43.202Z,9.65
2022-11-20T19:39:11.683Z,11.60
2022-11-20T19:41:39.663Z,11.82
2022-11-20T19:44:14.925Z,12.02
2022-11-20T19:46:42.072Z,12.38
2022-11-20T19:49:11.578Z,11.65
2022-11-20T19:51:43.462Z,15.88
2022-11-20T19:54:10.063Z,9.13
2022-11-20T19:56:36.985Z,8.52
2022-11-20T19:59:03.679Z,10.73
2022-11-20T20:01:31.547Z,9.10
2022-11-20T20:04:05.376Z,13.27
2022-11-20T20:06:35.000Z,8.52
2022-11-20T20:09:13.413Z,8.18
2022-11-20T20:11:41.099Z,5.25
2022-11-20T20:14:15.955Z,5.03
2022-11-20T20:16:43.069Z,4.07
2022-11-20T20:19:14.376Z,3.50
2022-11-20T20:21:41.517Z,3.72
2022-11-20T20:24:10.323Z,3.75
2022-11-20T20:26:37.475Z,6.30
2022-11-20T20:29:04.507Z,4.57
2022-11-20T20:31:33.927Z,3.28
2022-11-20T20:34:01.485Z,3.97
2022-11-20T20:36:28.129Z,6.72
2022-11-20T20:38:56.213Z,8.40
2022-11-20T20:41:25.367Z,6.35
2022-11-20T20:44:15.291Z,5.63
2022-11-20T20:46:42.188Z,5.15
2022-11-20T20:49:08.981Z,3.83
2022-11-20T20:51:36.066Z,3.92
2022-11-20T20:54:06.450Z,5.38
2022-11-20T20:56:36.528Z,4.72
2022-11-20T20:59:04.221Z,8.05
2022-11-20T21:01:31.073Z,6.07
2022-11-20T21:04:00.556Z,4.25
2022-11-20T21:06:27.186Z,5.95
2022-11-20T21:08:55.874Z,6.65
2022-11-20T21:11:22.428Z,5.72
2022-11-20T21:13:52.395Z,5.78
2022-11-20T21:16:22.277Z,4.93
2022-11-20T21:18:49.141Z,4.18
2022-11-20T21:21:35.732Z,4.97
2022-11-20T21:24:03.061Z,3.00
2022-11-20T21:26:29.697Z,5.03
2022-11-20T21:28:59.321Z,5.10
2022-11-20T21:31:26.796Z,4.05
2022-11-20T21:33:54.971Z,2.83
2022-11-20T21:36:24.062Z,3.20
2022-11-20T21:38:52.243Z,4.10
2022-11-20T21:41:18.825Z,3.33
2022-11-20T21:43:45.681Z,5.72
2022-11-20T21:46:14.549Z,4.40
2022-11-20T21:48:43.028Z,2.83
2022-11-20T21:51:11.936Z,1.83
2022-11-20T21:53:38.579Z,2.40
2022-11-20T21:56:07.796Z,2.63
2022-11-20T21:58:35.719Z,2.78
2022-11-20T22:01:13.747Z,2.67
2022-11-20T22:03:41.226Z,3.22
2022-11-20T22:06:09.379Z,2.78
2022-11-20T22:08:37.163Z,2.65
2022-11-20T22:11:15.555Z,1.52
2022-11-20T22:14:00.779Z,2.28
2022-11-20T22:16:27.593Z,3.15
2022-11-20T22:18:55.881Z,1.90
2022-11-20T22:21:25.098Z,3.05
2022-11-20T22:23:52.330Z,3.13
2022-11-20T22:26:21.582Z,3.22
2022-11-20T22:28:51.012Z,2.97
2022-11-20T22:31:18.702Z,4.05
2022-11-20T22:33:45.542Z,2.33
2022-11-20T22:36:14.372Z,1.70
2022-11-20T22:38:41.569Z,4.20
2022-11-20T22:41:10.939Z,4.68
2022-11-20T22:43:38.331Z,2.15
2022-11-20T22:46:09.006Z,6.30
2022-11-20T22:51:16.868Z,4.00
2022-11-20T22:53:44.236Z,3.38
2022-11-20T22:56:14.981Z,4.90
2022-11-20T23:01:15.058Z,8.80
2022-11-20T23:03:44.144Z,5.15
2022-11-20T23:06:11.217Z,5.35
2022-11-20T23:08:38.817Z,5.15
2022-11-20T23:11:13.796Z,4.30
2022-11-20T23:13:41.158Z,5.90
2022-11-20T23:16:13.809Z,5.20
2022-11-20T23:18:41.407Z,5.32
2022-11-20T23:21:16.373Z,7.57
2022-11-20T23:23:44.137Z,7.65
2022-11-20T23:26:12.564Z,11.98
2022-11-20T23:28:40.509Z,8.05
2022-11-20T23:31:07.935Z,5.18
2022-11-20T23:33:39.414Z,6.57
2022-11-20T23:36:06.731Z,7.25
2022-11-20T23:38:34.123Z,5.43
2022-11-20T23:41:01.109Z,7.93
2022-11-20T23:43:28.560Z,5.97
2022-11-20T23:45:59.874Z,4.97
2022-11-20T23:48:29.181Z,6.47
2022-11-20T23:50:56.008Z,4.82
2022-11-20T23:53:23.091Z,7.00
2022-11-20T23:55:51.548Z,6.55
2022-11-20T23:58:18.362Z,6.22
